Time;durP1;ratioP1;P1;durP2;ratioP2;P2;SDS_P1;SDS_P2;PMS_P1;PMS_P2;Temp;Humidity;BMP_temperature;BMP_pressure;BME280_temperature;BME280_humidity;BME280_pressure;Samples;Min_cycle;Max_cycle;Signal;HPM_P1;HPM_P2
2023/01/23 00:02:12;;;;;;;1.37;1.10;;;;;;;7.29;100.00;99893.63;5113126;28;20197;-62
2023/01/23 00:04:39;;;;;;;5.10;1.17;;;;;;;7.30;100.00;99904.59;5113015;28;20736;-61
2023/01/23 00:07:05;;;;;;;1.30;1.20;;;;;;;7.19;100.00;99892.41;5112997;28;20221;-61
2023/01/23 00:09:32;;;;;;;1.73;1.60;;;;;;;7.28;100.00;99896.25;5113390;28;20217;-61
2023/01/23 00:12:00;;;;;;;3.63;1.77;;;;;;;7.20;100.00;99899.13;5113269;28;20197;-62
2023/01/23 00:14:27;;;;;;;1.87;1.50;;;;;;;7.17;100.00;99899.25;5112900;28;20213;-62
2023/01/23 00:16:54;;;;;;;5.03;1.37;;;;;;;7.15;100.00;99898.50;5112983;28;20665;-61
2023/01/23 00:19:21;;;;;;;2.03;1.43;;;;;;;7.13;100.00;99913.03;5113052;28;20232;-61
2023/01/23 00:21:48;;;;;;;1.67;1.43;;;;;;;6.99;100.00;99914.44;5113037;28;20200;-61
2023/01/23 00:24:15;;;;;;;2.23;2.03;;;;;;;6.95;100.00;99923.13;5112925;28;20761;-61
2023/01/23 00:26:42;;;;;;;1.10;1.00;;;;;;;6.92;100.00;99915.63;5112582;28;20194;-62
2023/01/23 00:29:10;;;;;;;1.53;1.00;;;;;;;6.90;100.00;99919.94;5112944;28;20224;-62
2023/01/23 00:31:38;;;;;;;3.27;2.20;;;;;;;6.90;100.00;99924.22;5112789;27;20204;-61
2023/01/23 00:34:07;;;;;;;1.90;1.77;;;;;;;6.80;100.00;99937.28;5112323;28;20282;-62
2023/01/23 00:36:36;;;;;;;1.23;1.13;;;;;;;6.72;100.00;99923.25;5112628;28;20198;-61
2023/01/23 00:39:05;;;;;;;1.90;1.70;;;;;;;6.69;100.00;99933.56;5112549;28;20598;-62
2023/01/23 00:41:32;;;;;;;1.30;1.20;;;;;;;6.79;100.00;99937.38;5112645;28;20351;-62
2023/01/23 00:43:59;;;;;;;2.63;1.30;;;;;;;6.70;100.00;99940.31;5112702;28;20390;-61
2023/01/23 00:46:27;;;;;;;1.50;1.40;;;;;;;6.63;100.00;99944.81;5112505;28;20201;-61
2023/01/23 00:48:54;;;;;;;1.50;0.83;;;;;;;6.70;100.00;99950.47;5112479;27;20236;-62
2023/01/23 00:51:21;;;;;;;2.80;2.13;;;;;;;6.62;100.00;99958.41;5111567;28;20197;-62
2023/01/23 00:53:48;;;;;;;3.27;1.60;;;;;;;6.57;100.00;99961.16;5112252;28;20213;-60
2023/01/23 00:56:15;;;;;;;1.60;1.30;;;;;;;6.63;100.00;99965.13;5112270;28;20663;-61
2023/01/23 00:58:42;;;;;;;1.10;1.10;;;;;;;6.61;100.00;99971.19;5112155;28;20225;-61
2023/01/23 01:01:10;;;;;;;1.57;1.33;;;;;;;6.61;100.00;99955.94;5112139;28;20193;-62
2023/01/23 01:03:38;;;;;;;3.57;1.40;;;;;;;6.55;100.00;99962.94;5112261;28;20224;-62
2023/01/23 01:06:05;;;;;;;2.93;1.67;;;;;;;6.61;100.00;99969.47;5112188;28;20194;-62
2023/01/23 01:08:32;;;;;;;2.20;1.83;;;;;;;6.53;100.00;99974.88;5111894;28;20237;-61
2023/01/23 01:10:59;;;;;;;2.70;1.77;;;;;;;6.53;100.00;99974.88;5111828;28;20209;-60
2023/01/23 01:13:26;;;;;;;3.70;1.70;;;;;;;6.39;100.00;99961.09;5111741;28;20197;-60
2023/01/23 01:15:54;;;;;;;3.03;1.90;;;;;;;6.39;100.00;99966.16;5111708;28;20201;-61
2023/01/23 01:18:22;;;;;;;1.00;1.00;;;;;;;6.31;100.00;99961.38;5111910;28;20201;-61
2023/01/23 01:20:51;;;;;;;14.47;1.60;;;;;;;6.30;100.00;99964.81;5111872;28;20197;-61
2023/01/23 01:23:19;;;;;;;2.43;1.70;;;;;;;6.35;100.00;99955.31;5111538;28;20657;-60
2023/01/23 01:25:46;;;;;;;2.23;1.30;;;;;;;6.22;100.00;99965.13;5111666;28;20197;-61
2023/01/23 01:28:13;;;;;;;3.17;1.83;;;;;;;6.24;100.00;99967.59;5111601;28;20232;-60
2023/01/23 01:30:40;;;;;;;1.60;1.50;;;;;;;6.21;100.00;99967.72;5111614;28;20197;-61
2023/01/23 01:33:08;;;;;;;3.93;1.67;;;;;;;6.25;100.00;99964.19;5111418;28;20193;-61
2023/01/23 01:35:34;;;;;;;2.23;1.30;;;;;;;6.13;100.00;99965.50;5111521;28;20217;-61
2023/01/23 01:38:03;;;;;;;4.17;1.67;;;;;;;6.16;100.00;99962.00;5111498;28;20193;-61
2023/01/23 01:40:35;;;;;;;1.97;1.67;;;;;;;6.15;100.00;99965.44;5111278;28;20279;-61
2023/01/23 01:43:04;;;;;;;1.03;1.00;;;;;;;6.15;100.00;99973.88;5111432;28;20208;-61
2023/01/23 01:46:10;;;;;;;2.30;2.13;;;;;;;6.05;100.00;99963.28;5111119;28;20256;-61
2023/01/23 01:48:42;;;;;;;3.43;1.70;;;;;;;5.99;100.00;99968.59;5106149;28;20582;-61
2023/01/23 01:51:15;;;;;;;1.43;1.03;;;;;;;6.05;100.00;99968.34;5111143;28;20201;-61
2023/01/23 01:53:46;;;;;;;3.10;2.10;;;;;;;5.97;100.00;99977.97;5111139;28;20220;-61
2023/01/23 01:56:14;;;;;;;2.00;1.67;;;;;;;5.99;100.00;99975.38;5111062;28;20185;-61
2023/01/23 01:58:44;;;;;;;1.83;1.67;;;;;;;5.93;100.00;99981.50;5110973;28;20232;-61
2023/01/23 02:01:11;;;;;;;1.47;1.27;;;;;;;5.91;100.00;99985.81;5110544;28;20642;-61
2023/01/23 02:03:39;;;;;;;1.47;1.37;;;;;;;5.95;100.00;99974.66;5110440;28;20217;-61
2023/01/23 02:06:07;;;;;;;2.47;1.70;;;;;;;5.88;100.00;99975.78;5110874;28;20204;-61
2023/01/23 02:08:40;;;;;;;1.27;1.23;;;;;;;5.91;100.00;99975.66;5110806;28;20233;-60
2023/01/23 02:11:08;;;;;;;1.40;1.27;;;;;;;5.89;100.00;99979.94;5110790;28;20193;-61
2023/01/23 02:13:38;;;;;;;2.57;1.90;;;;;;;5.92;100.00;99987.44;5111049;28;20709;-61
2023/01/23 02:16:08;;;;;;;1.43;1.33;;;;;;;5.85;100.00;99975.88;5110663;28;20254;-61
2023/01/23 02:18:40;;;;;;;2.90;2.23;;;;;;;5.89;100.00;99982.50;5110927;28;20221;-61
2023/01/23 02:21:08;;;;;;;1.60;1.47;;;;;;;5.82;100.00;99988.69;5110595;28;20201;-61
2023/01/23 02:23:43;;;;;;;5.57;2.00;;;;;;;5.73;100.00;99976.34;5110449;28;20236;-61
2023/01/23 02:26:16;;;;;;;1.27;1.10;;;;;;;5.82;100.00;99981.91;5110764;28;20571;-61
2023/01/23 02:28:45;;;;;;;1.63;1.30;;;;;;;5.67;100.00;99983.31;5110389;28;20236;-60
2023/01/23 02:31:13;;;;;;;2.73;1.43;;;;;;;5.72;100.00;99984.84;5110569;28;20193;-61
2023/01/23 02:33:52;;;;;;;0.80;0.80;;;;;;;5.62;100.00;99980.13;5110165;28;20224;-61
2023/01/23 02:36:22;;;;;;;1.07;0.93;;;;;;;5.62;100.00;99995.34;5110368;28;20216;-61
2023/01/23 02:39:01;;;;;;;1.77;1.67;;;;;;;5.63;100.00;99991.91;5110096;28;20229;-61
2023/01/23 02:41:32;;;;;;;3.03;2.03;;;;;;;5.64;100.00;99991.03;5110452;28;20208;-60
2023/01/23 02:44:02;;;;;;;4.60;1.80;;;;;;;5.58;100.00;99995.50;5110227;28;20212;-61
2023/01/23 02:46:29;;;;;;;2.10;1.83;;;;;;;5.55;100.00;99998.97;5110318;28;20200;-61
2023/01/23 02:48:56;;;;;;;2.30;1.50;;;;;;;5.56;100.00;100000.63;5110074;28;20240;-60
2023/01/23 02:51:23;;;;;;;1.80;1.00;;;;;;;5.55;100.00;99993.91;5110052;28;20378;-61
2023/01/23 02:53:50;;;;;;;2.33;1.90;;;;;;;5.47;100.00;100000.97;5110381;28;20579;-61
2023/01/23 02:56:18;;;;;;;2.20;2.00;;;;;;;5.51;100.00;100002.50;5110182;28;20197;-61
2023/01/23 03:01:34;;;;;;;1.23;1.03;;;;;;;5.38;100.00;99996.22;5110282;28;20204;-61
2023/01/23 03:04:03;;;;;;;3.40;2.03;;;;;;;5.44;100.00;100001.09;5109795;28;20736;-61
2023/01/23 03:06:35;;;;;;;2.33;1.33;;;;;;;5.34;100.00;99987.91;5110406;28;20201;-61
2023/01/23 03:09:04;;;;;;;5.87;2.03;;;;;;;5.32;100.00;99991.38;5109897;28;20236;-61
2023/01/23 03:11:32;;;;;;;0.97;0.97;;;;;;;5.33;100.00;99995.59;5110077;28;20292;-60
2023/01/23 03:14:00;;;;;;;2.67;1.40;;;;;;;5.24;100.00;99998.47;5112139;28;20217;-61
2023/01/23 03:16:27;;;;;;;2.13;1.23;;;;;;;5.31;100.00;99999.88;5114236;27;20212;-60
2023/01/23 03:18:56;;;;;;;2.60;2.40;;;;;;;5.22;100.00;100001.84;5113824;28;20224;-60
2023/01/23 03:21:23;;;;;;;10.10;2.13;;;;;;;5.18;100.00;100015.53;5113941;28;20197;-61
2023/01/23 03:23:50;;;;;;;3.10;2.07;;;;;;;5.19;100.00;100003.69;5114288;28;20221;-61
2023/01/23 03:26:17;;;;;;;5.47;2.10;;;;;;;5.12;100.00;100004.75;5113872;28;20207;-61
2023/01/23 03:31:30;;;;;;;4.20;2.30;;;;;;;5.14;100.00;100008.91;5113911;28;20189;-61
2023/01/23 03:33:57;;;;;;;2.87;1.70;;;;;;;5.07;100.00;100006.66;5113850;28;20239;-61
2023/01/23 03:36:24;;;;;;;9.73;1.47;;;;;;;5.13;100.00;100004.72;5113759;28;20204;-61
2023/01/23 03:41:37;;;;;;;2.93;1.97;;;;;;;5.01;100.00;100000.09;5113748;28;20199;-61
2023/01/23 03:44:03;;;;;;;2.03;1.83;;;;;;;5.06;100.00;100015.97;5113425;28;20217;-60
2023/01/23 03:46:32;;;;;;;5.77;2.17;;;;;;;5.00;100.00;100006.00;5113476;28;20197;-61
2023/01/23 03:48:59;;;;;;;6.40;1.53;;;;;;;5.01;100.00;100011.94;5113427;28;20240;-61
2023/01/23 03:51:25;;;;;;;1.20;1.00;;;;;;;4.99;100.00;100025.47;5113421;28;20616;-61
2023/01/23 03:53:52;;;;;;;1.73;1.60;;;;;;;5.01;100.00;100027.97;5113612;28;20217;-61
2023/01/23 03:56:19;;;;;;;3.33;1.60;;;;;;;4.96;100.00;100022.22;5113308;28;20201;-61
2023/01/23 03:58:47;;;;;;;1.93;1.40;;;;;;;4.94;100.00;100026.50;5113213;27;20229;-61
2023/01/23 04:01:14;;;;;;;1.17;1.07;;;;;;;5.04;100.00;100032.09;5113075;28;20454;-60
2023/01/23 04:03:42;;;;;;;3.50;1.67;;;;;;;4.93;100.00;100024.84;5113291;28;20229;-61
2023/01/23 04:06:09;;;;;;;2.33;2.03;;;;;;;4.96;100.00;100032.34;5113211;28;20204;-61
2023/01/23 04:08:36;;;;;;;1.77;1.60;;;;;;;4.96;100.00;100037.41;5112944;28;20240;-61
2023/01/23 04:11:05;;;;;;;1.83;1.73;;;;;;;4.96;100.00;100034.88;5112880;28;20197;-60
2023/01/23 04:13:32;;;;;;;2.90;2.67;;;;;;;4.92;100.00;100035.88;5112977;28;20221;-61
2023/01/23 04:15:59;;;;;;;0.93;0.90;;;;;;;5.01;100.00;100033.03;5113087;28;20197;-60
2023/01/23 04:18:26;;;;;;;1.93;1.27;;;;;;;4.99;100.00;100034.78;5112864;28;20215;-61
2023/01/23 04:20:55;;;;;;;2.47;1.47;;;;;;;4.97;100.00;100036.53;5112729;28;20215;-60
2023/01/23 04:23:23;;;;;;;0.73;0.73;;;;;;;4.91;100.00;100044.34;5112576;28;20201;-61
2023/01/23 04:25:50;;;;;;;2.73;1.30;;;;;;;4.84;100.00;100051.31;5111793;28;20193;-60
2023/01/23 04:28:17;;;;;;;1.40;1.30;;;;;;;4.82;100.00;100042.13;5112463;28;20233;-60
2023/01/23 04:30:44;;;;;;;0.97;0.60;;;;;;;4.85;100.00;100042.84;5112824;28;20219;-60
2023/01/23 04:33:11;;;;;;;1.73;1.33;;;;;;;4.81;100.00;100046.38;5112484;28;20197;-61
2023/01/23 04:35:38;;;;;;;8.83;1.63;;;;;;;4.84;100.00;100042.91;5112519;28;20197;-61
2023/01/23 04:38:06;;;;;;;2.47;1.57;;;;;;;4.81;100.00;100050.59;5112404;28;20197;-60
2023/01/23 04:40:33;;;;;;;2.07;0.80;;;;;;;4.84;100.00;100041.19;5112475;28;20213;-61
2023/01/23 04:43:00;;;;;;;1.73;1.40;;;;;;;4.82;100.00;100052.25;5112424;28;20220;-61
2023/01/23 04:45:27;;;;;;;2.30;2.07;;;;;;;4.89;100.00;100058.78;5112118;28;20733;-60
2023/01/23 04:47:54;;;;;;;2.50;1.87;;;;;;;4.80;100.00;100059.06;5111861;28;20212;-60
2023/01/23 04:50:21;;;;;;;2.67;1.77;;;;;;;4.76;100.00;100059.16;5112496;27;20225;-61
2023/01/23 04:52:47;;;;;;;4.63;2.27;;;;;;;4.75;100.00;100069.38;5112049;28;20197;-61
2023/01/23 04:55:16;;;;;;;2.90;2.03;;;;;;;4.73;100.00;100071.13;5112057;28;20216;-60
2023/01/23 04:57:42;;;;;;;1.40;1.30;;;;;;;4.86;100.00;100069.00;5112104;28;20201;-60
2023/01/23 05:00:10;;;;;;;3.03;1.60;;;;;;;4.84;100.00;100070.78;5111945;28;20221;-61
2023/01/23 05:02:37;;;;;;;1.23;1.10;;;;;;;4.75;100.00;100067.66;5111829;28;20200;-61
2023/01/23 05:05:05;;;;;;;1.30;1.20;;;;;;;4.73;100.00;100069.41;5111855;28;20217;-61
2023/01/23 05:07:32;;;;;;;2.77;2.30;;;;;;;4.71;100.00;100081.31;5111753;28;20235;-60
2023/01/23 05:09:59;;;;;;;1.97;1.73;;;;;;;4.76;100.00;100088.75;5111952;28;20237;-61
2023/01/23 05:12:27;;;;;;;0.40;0.40;;;;;;;4.78;100.00;100086.19;5111855;28;20197;-60
2023/01/23 05:14:54;;;;;;;0.90;0.90;;;;;;;4.76;100.00;100088.75;5111714;28;20244;-60
2023/01/23 05:17:21;;;;;;;4.90;1.90;;;;;;;4.79;100.00;100092.88;5111866;28;20201;-61
2023/01/23 05:19:48;;;;;;;1.57;1.47;;;;;;;4.83;100.00;100099.50;5111966;28;20225;-61
2023/01/23 05:22:16;;;;;;;3.30;2.03;;;;;;;4.66;100.00;100098.34;5111464;28;20250;-61
2023/01/23 05:24:43;;;;;;;6.80;2.37;;;;;;;4.75;100.00;100103.13;5111674;28;20221;-61
2023/01/23 05:27:10;;;;;;;2.67;1.67;;;;;;;4.61;100.00;100102.72;5111433;28;20205;-61
2023/01/23 05:29:38;;;;;;;1.90;1.37;;;;;;;4.55;100.00;100100.41;5111673;28;20240;-59
2023/01/23 05:32:06;;;;;;;1.20;1.10;;;;;;;4.65;100.00;100111.88;5111611;28;20193;-61
2023/01/23 05:34:33;;;;;;;2.57;1.80;;;;;;;4.65;100.00;100106.81;5111180;28;20739;-61
2023/01/23 05:37:01;;;;;;;1.53;1.43;;;;;;;4.53;100.00;100127.47;5111137;28;20194;-61
2023/01/23 05:39:28;;;;;;;5.43;2.53;;;;;;;4.47;100.00;100127.66;5111415;28;20224;-60
2023/01/23 05:41:55;;;;;;;1.93;1.83;;;;;;;4.54;100.00;100134.19;5111099;28;20239;-61
2023/01/23 05:44:21;;;;;;;1.30;0.93;;;;;;;4.51;100.00;100140.19;5110770;28;20221;-61
2023/01/23 05:46:50;;;;;;;1.50;1.33;;;;;;;4.52;100.00;100135.94;5111208;28;20196;-61
2023/01/23 05:49:17;;;;;;;1.87;1.40;;;;;;;4.47;100.00;100137.78;5110816;28;20240;-63
2023/01/23 05:51:43;;;;;;;2.37;1.23;;;;;;;4.48;100.00;100141.94;5110946;28;20665;-62
2023/01/23 05:54:11;;;;;;;0.87;0.87;;;;;;;4.59;100.00;100147.53;5110742;28;20224;-61
2023/01/23 05:56:38;;;;;;;1.47;1.37;;;;;;;4.64;100.00;100148.22;5110763;28;20205;-60
2023/01/23 05:59:04;;;;;;;0.73;0.73;;;;;;;4.55;100.00;100151.03;5110787;28;20225;-60
2023/01/23 06:01:32;;;;;;;3.40;1.87;;;;;;;4.42;100.00;100152.28;5111038;28;20198;-60
2023/01/23 06:04:00;;;;;;;1.60;1.03;;;;;;;4.48;100.00;100152.09;5111064;27;20217;-60
2023/01/23 06:06:27;;;;;;;6.67;1.57;;;;;;;4.42;100.00;100149.75;5110589;28;20196;-60
2023/01/23 06:08:53;;;;;;;3.53;0.90;;;;;;;4.40;100.00;100156.56;5110436;28;20231;-61
2023/01/23 06:11:20;;;;;;;0.80;0.80;;;;;;;4.29;100.00;100157.72;5110321;28;20193;-61
2023/01/23 06:13:47;;;;;;;1.73;1.63;;;;;;;4.39;100.00;100159.97;5110549;28;20236;-61
2023/01/23 06:16:14;;;;;;;3.20;1.13;;;;;;;4.37;100.00;100165.09;5110335;28;20696;-60
2023/01/23 06:18:41;;;;;;;1.53;1.43;;;;;;;4.34;100.00;100161.81;5110680;28;20219;-60
2023/01/23 06:21:09;;;;;;;1.87;1.77;;;;;;;4.32;100.00;100156.78;5110487;28;20190;-61
2023/01/23 06:23:36;;;;;;;2.37;1.40;;;;;;;4.28;100.00;100158.59;5110348;28;20223;-61
2023/01/23 06:26:04;;;;;;;1.10;1.03;;;;;;;4.31;100.00;100162.75;5110746;28;20213;-61
2023/01/23 06:28:31;;;;;;;3.97;1.67;;;;;;;4.24;100.00;100167.13;5110486;28;20232;-61
2023/01/23 06:31:02;;;;;;;1.37;1.13;;;;;;;4.19;100.00;100168.97;5110716;28;20204;-60
2023/01/23 06:33:29;;;;;;;1.10;0.93;;;;;;;4.23;100.00;100168.00;5110417;28;20200;-60
2023/01/23 06:35:59;;;;;;;1.50;1.40;;;;;;;4.16;100.00;100156.41;5110399;28;20193;-61
2023/01/23 06:38:29;;;;;;;2.80;0.80;;;;;;;4.15;100.00;100162.34;5110179;28;20208;-61
2023/01/23 06:40:55;;;;;;;1.43;1.20;;;;;;;4.22;100.00;100166.38;5110174;28;20197;-60
2023/01/23 06:43:23;;;;;;;1.40;1.30;;;;;;;4.16;100.00;100174.13;5109920;28;20205;-60
2023/01/23 06:45:50;;;;;;;1.70;1.60;;;;;;;4.13;100.00;100179.28;5110239;28;20208;-60
2023/01/23 06:48:18;;;;;;;0.63;0.57;;;;;;;4.04;100.00;100177.00;5109566;28;20197;-60
2023/01/23 06:50:45;;;;;;;2.67;1.57;;;;;;;3.99;100.00;100172.06;5110078;28;20227;-60
2023/01/23 06:53:15;;;;;;;2.00;1.63;;;;;;;4.04;100.00;100179.50;5109915;28;20205;-60
2023/01/23 06:55:43;;;;;;;0.43;0.43;;;;;;;3.99;100.00;100177.13;5110143;28;20201;-61
2023/01/23 06:58:10;;;;;;;1.70;1.60;;;;;;;4.08;100.00;100181.09;5110078;28;20204;-60
2023/01/23 07:00:37;;;;;;;0.53;0.50;;;;;;;4.00;100.00;100177.97;5110280;28;20197;-60
2023/01/23 07:03:04;;;;;;;5.47;1.50;;;;;;;3.91;100.00;100179.03;5109918;28;20212;-61
2023/01/23 07:05:31;;;;;;;0.83;0.80;;;;;;;3.96;100.00;100179.75;5110097;28;20379;-61
2023/01/23 07:07:58;;;;;;;1.20;0.93;;;;;;;3.93;100.00;100186.59;5109965;28;20295;-60
2023/01/23 07:10:25;;;;;;;1.27;0.90;;;;;;;3.98;100.00;100193.16;5109567;28;20225;-60
2023/01/23 07:12:53;;;;;;;1.13;0.97;;;;;;;3.95;100.00;100203.38;5109742;28;20197;-60
2023/01/23 07:15:20;;;;;;;1.90;1.37;;;;;;;3.90;100.00;100206.91;5109804;28;20340;-60
2023/01/23 07:17:47;;;;;;;0.83;0.70;;;;;;;3.90;100.00;100211.94;5109789;28;20696;-61
2023/01/23 07:20:14;;;;;;;1.10;1.00;;;;;;;3.88;100.00;100208.66;5109634;28;20232;-60
2023/01/23 07:22:41;;;;;;;2.80;1.00;;;;;;;3.91;100.00;100218.69;5109782;28;20773;-60
2023/01/23 07:25:09;;;;;;;0.57;0.57;;;;;;;3.97;100.00;100226.94;5109693;28;20220;-60
2023/01/23 07:27:36;;;;;;;2.87;1.37;;;;;;;3.86;100.00;100227.22;5109821;28;20201;-62
2023/01/23 07:30:05;;;;;;;0.53;0.53;;;;;;;3.88;100.00;100213.72;5109587;28;20243;-60
2023/01/23 07:32:32;;;;;;;0.60;0.60;;;;;;;3.83;100.00;100217.19;5109912;28;20276;-60
2023/01/23 07:34:58;;;;;;;1.30;1.10;;;;;;;3.93;100.00;100219.50;5108610;28;20217;-61
2023/01/23 07:37:25;;;;;;;0.33;0.33;;;;;;;3.94;100.00;100213.56;5110116;28;20691;-61
2023/01/23 07:39:52;;;;;;;0.60;0.60;;;;;;;3.91;100.00;100208.56;5109526;28;20224;-61
2023/01/23 07:42:19;;;;;;;2.17;1.07;;;;;;;3.84;100.00;100212.97;5109501;28;20220;-61
2023/01/23 07:44:46;;;;;;;1.87;1.37;;;;;;;3.78;100.00;100219.03;5109506;28;20235;-60
2023/01/23 07:47:14;;;;;;;1.00;0.90;;;;;;;3.84;100.00;100223.91;5109397;28;20197;-60
2023/01/23 07:49:41;;;;;;;3.60;2.00;;;;;;;3.74;100.00;100232.59;5109586;28;20740;-61
2023/01/23 07:52:08;;;;;;;0.73;0.70;;;;;;;3.75;100.00;100234.28;5109447;28;20198;-61
2023/01/23 07:54:35;;;;;;;1.23;0.83;;;;;;;3.83;100.00;100237.41;5109542;28;20220;-60
2023/01/23 07:57:01;;;;;;;0.30;0.30;;;;;;;3.89;100.00;100238.13;5109411;28;20193;-60
2023/01/23 07:59:28;;;;;;;0.97;0.80;;;;;;;3.88;100.00;100239.84;5109514;28;20232;-61
2023/01/23 08:01:55;;;;;;;0.97;0.87;;;;;;;3.90;100.00;100237.25;5112859;28;20231;-61
2023/01/23 08:04:24;;;;;;;0.90;0.67;;;;;;;3.88;100.00;100242.38;5113048;28;20216;-60
2023/01/23 08:06:50;;;;;;;0.87;0.80;;;;;;;3.95;100.00;100240.50;5112927;28;20204;-61
2023/01/23 08:09:17;;;;;;;0.43;0.43;;;;;;;3.85;100.00;100235.69;5112955;28;20221;-60
2023/01/23 08:11:44;;;;;;;2.87;1.57;;;;;;;3.93;100.00;100237.19;5112842;28;20201;-60
2023/01/23 08:14:12;;;;;;;1.57;1.47;;;;;;;3.83;100.00;100247.53;5112894;28;20213;-61
2023/01/23 08:16:38;;;;;;;0.33;0.33;;;;;;;3.95;100.00;100245.56;5112723;28;20198;-60
2023/01/23 08:19:07;;;;;;;2.50;1.47;;;;;;;3.86;100.00;100262.63;5112704;28;20214;-60
2023/01/23 08:21:36;;;;;;;0.63;0.63;;;;;;;3.84;100.00;100261.03;5113226;28;20247;-61
2023/01/23 08:24:03;;;;;;;0.80;0.70;;;;;;;3.77;100.00;100267.94;5112869;28;20228;-60
2023/01/23 08:26:30;;;;;;;0.60;0.50;;;;;;;3.89;100.00;100278.63;5112767;28;20757;-60
2023/01/23 08:28:57;;;;;;;3.03;0.73;;;;;;;3.79;100.00;100276.31;5112685;28;20240;-61
2023/01/23 08:31:24;;;;;;;0.60;0.40;;;;;;;3.81;100.00;100282.19;5112661;28;20197;-60
2023/01/23 08:33:51;;;;;;;3.30;1.50;;;;;;;3.65;100.00;100278.38;5112726;28;20217;-61
2023/01/23 08:36:17;;;;;;;0.53;0.53;;;;;;;3.61;100.00;100281.84;5112773;28;20698;-61
2023/01/23 08:38:46;;;;;;;1.60;1.10;;;;;;;3.53;100.00;100281.19;5112314;28;20229;-60
2023/01/23 08:41:13;;;;;;;1.20;1.13;;;;;;;3.67;100.00;100286.75;5112479;28;20588;-60
2023/01/23 08:43:40;;;;;;;0.87;0.60;;;;;;;3.54;100.00;100281.16;5112444;28;20232;-61
2023/01/23 08:46:08;;;;;;;1.23;1.13;;;;;;;3.58;100.00;100286.97;5112132;28;20209;-60
2023/01/23 08:48:35;;;;;;;1.17;1.07;;;;;;;3.56;100.00;100281.13;5112069;28;20726;-60
2023/01/23 08:51:05;;;;;;;0.30;0.30;;;;;;;3.64;100.00;100281.78;5112564;28;20228;-60
2023/01/23 08:53:33;;;;;;;1.40;1.00;;;;;;;3.62;100.00;100280.97;5112314;28;20213;-61
2023/01/23 08:56:02;;;;;;;2.13;2.00;;;;;;;3.59;100.00;100273.47;5112103;28;20197;-62
2023/01/23 08:58:30;;;;;;;1.00;0.90;;;;;;;3.66;100.00;100277.47;5112238;28;20208;-61
2023/01/23 09:00:57;;;;;;;0.87;0.87;;;;;;;3.67;100.00;100281.69;5112047;28;20213;-61
2023/01/23 09:03:25;;;;;;;0.20;0.20;;;;;;;3.58;100.00;100266.75;5111755;28;20212;-60
2023/01/23 09:05:52;;;;;;;0.63;0.63;;;;;;;3.60;100.00;100272.59;5111973;28;20657;-61
2023/01/23 09:08:19;;;;;;;0.73;0.73;;;;;;;3.55;100.00;100271.84;5111942;28;20208;-60
2023/01/23 09:10:46;;;;;;;0.50;0.50;;;;;;;3.55;100.00;100280.28;5111342;28;20220;-60
2023/01/23 09:13:14;;;;;;;0.63;0.63;;;;;;;3.55;100.00;100269.31;5111720;28;20208;-60
2023/01/23 09:15:41;;;;;;;0.47;0.47;;;;;;;3.56;100.00;100268.47;5111694;28;20201;-60
2023/01/23 09:18:08;;;;;;;0.97;0.93;;;;;;;3.59;100.00;100269.22;5111626;28;20201;-60
2023/01/23 09:20:35;;;;;;;1.03;0.93;;;;;;;3.60;100.00;100270.88;5111628;28;20228;-61
2023/01/23 09:23:02;;;;;;;0.43;0.43;;;;;;;3.63;100.00;100264.91;5111686;28;20201;-61
2023/01/23 09:25:30;;;;;;;1.03;0.93;;;;;;;3.62;100.00;100269.16;5112042;28;20240;-61
2023/01/23 09:27:57;;;;;;;1.00;0.83;;;;;;;3.63;100.00;100269.97;5111548;28;20212;-61
2023/01/23 09:30:25;;;;;;;1.40;0.70;;;;;;;3.61;100.00;100266.69;5111239;28;20228;-61
2023/01/23 09:32:53;;;;;;;0.60;0.60;;;;;;;3.57;100.00;100260.00;5111250;28;20678;-60
2023/01/23 09:35:22;;;;;;;1.43;1.33;;;;;;;3.49;100.00;100261.91;5111405;28;20761;-60
2023/01/23 09:38:01;;;;;;;0.67;0.67;;;;;;;3.51;100.00;100265.22;5111274;28;20197;-60
2023/01/23 09:40:31;;;;;;;2.43;1.27;;;;;;;3.48;100.00;100250.13;5111409;28;20256;-60
2023/01/23 09:43:02;;;;;;;0.63;0.40;;;;;;;3.55;100.00;100246.56;5111467;28;20189;-60
2023/01/23 09:45:32;;;;;;;1.13;1.03;;;;;;;3.53;100.00;100253.38;5111000;28;20282;-61
2023/01/23 09:48:11;;;;;;;0.57;0.57;;;;;;;3.54;100.00;100252.50;5110998;28;20197;-60
2023/01/23 09:50:43;;;;;;;3.40;2.10;;;;;;;3.57;100.00;100260.00;5111251;28;20220;-62
2023/01/23 09:53:15;;;;;;;0.50;0.50;;;;;;;3.59;100.00;100263.34;5111327;28;20194;-61
2023/01/23 09:55:44;;;;;;;2.83;0.90;;;;;;;3.59;100.00;100273.47;5110944;28;20189;-61
2023/01/23 09:58:20;;;;;;;4.97;1.23;;;;;;;3.71;100.00;100263.03;5110841;28;20218;-60
2023/01/23 10:00:51;;;;;;;0.87;0.83;;;;;;;3.76;100.00;100261.22;5110944;28;20211;-62
2023/01/23 10:03:18;;;;;;;1.07;0.83;;;;;;;3.79;100.00;100256.09;5110951;28;20208;-61
2023/01/23 10:06:00;;;;;;;0.70;0.53;;;;;;;3.74;100.00;100262.94;5110576;28;20193;-60
2023/01/23 10:08:41;;;;;;;0.47;0.47;;;;;;;3.78;100.00;100264.56;5110782;28;20212;-61
2023/01/23 10:11:17;;;;;;;0.77;0.77;;;;;;;3.81;100.00;100256.88;5110594;28;20220;-60
2023/01/23 10:14:14;;;;;;;1.37;0.80;;;;;;;3.79;100.00;100251.03;5110862;28;20216;-60
2023/01/23 10:17:02;;;;;;;0.20;0.20;;;;;;;3.68;100.00;100258.06;5110658;28;20205;-60
2023/01/23 10:19:41;;;;;;;1.37;0.80;;;;;;;3.68;100.00;100267.34;5110813;28;20240;-61
2023/01/23 10:22:21;;;;;;;2.73;1.10;;;;;;;3.64;100.00;100261.53;5110444;28;20209;-61
2023/01/23 10:24:52;;;;;;;1.30;0.80;;;;;;;3.61;100.00;100259.09;5110359;28;20761;-61
2023/01/23 10:27:21;;;;;;;1.43;0.73;;;;;;;3.58;100.00;100256.63;5110494;28;20189;-61
2023/01/23 10:29:52;;;;;;;1.13;1.13;;;;;;;3.55;100.00;100251.63;5110080;28;20215;-61
2023/01/23 10:32:25;;;;;;;2.23;1.23;;;;;;;3.49;100.00;100246.72;5110277;28;20201;-61
2023/01/23 10:34:57;;;;;;;2.03;0.63;;;;;;;3.42;100.00;100241.00;5110282;28;20238;-59
2023/01/23 10:37:40;;;;;;;1.20;1.10;;;;;;;3.45;100.00;100242.63;5110170;28;20205;-60
2023/01/23 10:40:11;;;;;;;0.67;0.67;;;;;;;3.38;100.00;100237.72;5110634;28;20221;-60
2023/01/23 10:42:38;;;;;;;2.07;1.13;;;;;;;3.40;100.00;100238.53;5110301;28;20653;-60
2023/01/23 10:45:13;;;;;;;2.93;1.97;;;;;;;3.40;100.00;100223.34;5110025;28;20233;-60
2023/01/23 10:47:46;;;;;;;2.20;1.97;;;;;;;3.34;100.00;100236.13;5109475;28;20386;-61
2023/01/23 10:50:13;;;;;;;0.43;0.43;;;;;;;3.39;100.00;100236.84;5110104;28;20229;-61
2023/01/23 10:52:42;;;;;;;0.73;0.70;;;;;;;3.44;100.00;100243.50;5110087;28;20211;-60
2023/01/23 10:55:28;;;;;;;0.97;0.90;;;;;;;3.32;100.00;100235.34;5110467;28;20217;-60
2023/01/23 10:57:57;;;;;;;2.97;1.03;;;;;;;3.44;100.00;100238.44;5110035;28;20201;-60
2023/01/23 11:00:27;;;;;;;0.93;0.87;;;;;;;3.49;100.00;100242.53;5109841;28;20242;-61
2023/01/23 11:02:56;;;;;;;1.53;1.03;;;;;;;3.55;100.00;100244.03;5110006;28;20199;-60
2023/01/23 11:05:37;;;;;;;0.50;0.43;;;;;;;3.59;100.00;100233.81;5109958;28;20221;-61
2023/01/23 11:08:04;;;;;;;0.93;0.73;;;;;;;3.63;100.00;100224.44;5110049;28;20661;-60
2023/01/23 11:10:31;;;;;;;3.73;2.17;;;;;;;3.46;100.00;100222.38;5109629;28;20228;-61
2023/01/23 11:12:59;;;;;;;0.40;0.40;;;;;;;3.53;100.00;100217.97;5109855;28;20586;-61
2023/01/23 11:15:35;;;;;;;1.10;1.03;;;;;;;3.56;100.00;100212.84;5110084;28;20229;-61
2023/01/23 11:18:32;;;;;;;1.57;1.47;;;;;;;3.52;100.00;100211.25;5110075;28;20204;-61
2023/01/23 11:21:00;;;;;;;1.30;1.10;;;;;;;3.62;100.00;100207.63;5110143;28;20197;-60
2023/01/23 11:23:29;;;;;;;0.77;0.43;;;;;;;3.72;100.00;100203.97;5109993;28;20214;-61
2023/01/23 11:25:56;;;;;;;0.80;0.80;;;;;;;3.75;100.00;100214.03;5109822;28;20704;-61
2023/01/23 11:28:26;;;;;;;4.70;0.97;;;;;;;3.63;100.00;100216.88;5109756;28;20209;-60
2023/01/23 11:30:58;;;;;;;0.90;0.87;;;;;;;3.71;100.00;100222.56;5109731;28;20232;-60
2023/01/23 11:33:41;;;;;;;2.13;0.83;;;;;;;3.71;100.00;100211.63;5109735;28;20677;-60
2023/01/23 11:36:24;;;;;;;1.87;1.00;;;;;;;3.61;100.00;100211.88;5114016;28;20193;-60
2023/01/23 11:38:55;;;;;;;1.50;0.97;;;;;;;3.57;100.00;100201.84;5113922;28;20225;-60
2023/01/23 11:41:28;;;;;;;1.47;1.37;;;;;;;3.59;100.00;100203.47;5113717;28;20692;-61
2023/01/23 11:43:55;;;;;;;1.33;1.03;;;;;;;3.53;100.00;100193.53;5113700;28;20526;-61